createdAt,value
2023-05-04T00:01:18.612Z,11.12
2023-05-04T00:04:21.953Z,10.99
2023-05-04T00:07:24.608Z,10.96
2023-05-04T00:10:28.983Z,10.91
2023-05-04T00:13:31.501Z,10.87
2023-05-04T00:16:34.185Z,10.86
2023-05-04T00:19:40.146Z,10.76
2023-05-04T00:22:42.853Z,10.78
2023-05-04T00:25:46.845Z,10.77
2023-05-04T00:28:49.436Z,10.80
2023-05-04T00:31:52.153Z,10.70
2023-05-04T00:34:54.710Z,10.65
2023-05-04T00:37:57.225Z,10.71
2023-05-04T00:41:01.516Z,10.69
2023-05-04T00:44:04.318Z,10.70
2023-05-04T00:47:07.049Z,10.71
2023-05-04T00:50:11.037Z,10.63
2023-05-04T00:53:13.751Z,10.60
2023-05-04T00:56:17.735Z,10.56
2023-05-04T00:59:20.331Z,10.55
2023-05-04T01:02:23.219Z,10.52
2023-05-04T01:05:27.946Z,10.47
2023-05-04T01:08:32.891Z,10.42
2023-05-04T01:11:42.500Z,10.38
2023-05-04T01:14:45.434Z,10.38
2023-05-04T01:17:48.091Z,10.30
2023-05-04T01:20:50.670Z,10.26
2023-05-04T01:23:54.646Z,10.19
2023-05-04T01:27:02.309Z,10.19
2023-05-04T01:30:10.425Z,10.18
2023-05-04T01:33:13.238Z,10.18
2023-05-04T01:36:15.903Z,10.12
2023-05-04T01:39:19.864Z,10.07
2023-05-04T01:42:22.434Z,10.10
2023-05-04T01:45:24.991Z,10.02
2023-05-04T01:48:28.428Z,9.95
2023-05-04T01:51:31.049Z,9.92
2023-05-04T01:54:35.000Z,9.86
2023-05-04T01:57:37.534Z,9.80
2023-05-04T02:00:40.241Z,9.79
2023-05-04T02:03:42.819Z,9.75
2023-05-04T02:06:45.505Z,9.83
2023-05-04T02:09:49.764Z,9.79
2023-05-04T02:12:52.836Z,9.66
2023-05-04T02:15:55.444Z,9.52
2023-05-04T02:18:58.007Z,9.52
2023-05-04T02:22:00.498Z,9.51
2023-05-04T02:25:04.649Z,9.52
2023-05-04T02:28:07.155Z,9.47
2023-05-04T02:31:09.743Z,9.45
2023-05-04T02:34:12.574Z,9.45
2023-05-04T02:37:16.323Z,9.44
2023-05-04T02:40:20.369Z,9.39
2023-05-04T02:43:22.881Z,9.37
2023-05-04T02:46:26.702Z,9.32
2023-05-04T02:49:29.428Z,9.26
2023-05-04T02:52:31.966Z,9.32
2023-05-04T02:55:35.926Z,9.28
2023-05-04T02:58:38.410Z,9.23
2023-05-04T03:01:40.955Z,9.21
2023-05-04T03:04:43.626Z,9.17
2023-05-04T03:07:46.269Z,9.11
2023-05-04T03:10:50.341Z,9.20
2023-05-04T03:13:53.066Z,9.22
2023-05-04T03:16:55.676Z,9.19
2023-05-04T03:19:58.278Z,9.20
2023-05-04T03:23:00.765Z,9.15
2023-05-04T03:26:04.844Z,9.14
2023-05-04T03:29:07.306Z,9.13
2023-05-04T03:32:10.053Z,9.16
2023-05-04T03:35:12.795Z,9.24
2023-05-04T03:38:15.333Z,9.15
2023-05-04T03:41:19.185Z,9.02
2023-05-04T03:44:21.750Z,9.07
2023-05-04T03:47:24.317Z,9.05
2023-05-04T03:50:26.895Z,8.91
2023-05-04T03:53:29.351Z,8.90
2023-05-04T03:56:33.226Z,8.93
2023-05-04T03:59:35.859Z,8.90
2023-05-04T04:02:38.623Z,8.90
2023-05-04T04:05:41.196Z,8.83
2023-05-04T04:08:43.873Z,8.79
2023-05-04T04:11:47.692Z,8.84
2023-05-04T04:14:51.919Z,8.93
2023-05-04T04:17:54.486Z,8.95
2023-05-04T04:20:57.047Z,8.91
2023-05-04T04:23:59.706Z,8.98
2023-05-04T04:27:03.616Z,9.04
2023-05-04T04:30:07.474Z,9.17
2023-05-04T04:33:10.297Z,9.14
2023-05-04T04:36:16.578Z,9.20
2023-05-04T04:39:19.133Z,9.20
2023-05-04T04:42:23.294Z,9.42
2023-05-04T04:45:25.892Z,9.47
2023-05-04T04:48:28.577Z,9.58
2023-05-04T04:51:31.284Z,9.68
2023-05-04T04:54:33.922Z,9.80
2023-05-04T04:57:37.940Z,9.84
2023-05-04T05:00:41.211Z,9.95
2023-05-04T05:03:44.456Z,10.07
2023-05-04T05:06:47.819Z,10.19
2023-05-04T05:09:50.406Z,10.31
2023-05-04T05:12:54.413Z,10.45
2023-05-04T05:15:57.043Z,10.61
2023-05-04T05:18:59.781Z,10.79
2023-05-04T05:22:02.320Z,10.98
2023-05-04T05:25:05.365Z,11.15
2023-05-04T05:28:09.291Z,11.26
2023-05-04T05:31:11.929Z,11.37
2023-05-04T05:34:14.543Z,11.50
2023-05-04T05:37:18.341Z,11.53
2023-05-04T05:40:22.433Z,11.68
2023-05-04T05:43:26.545Z,11.82
2023-05-04T05:46:29.278Z,11.92
2023-05-04T05:49:32.005Z,12.04
2023-05-04T05:52:34.810Z,12.15
2023-05-04T05:55:37.548Z,12.28
2023-05-04T05:58:41.892Z,12.39
2023-05-04T06:01:44.688Z,12.49
2023-05-04T06:04:47.434Z,12.62
2023-05-04T06:07:50.155Z,12.78
2023-05-04T06:10:54.502Z,12.99
2023-05-04T06:13:58.501Z,13.07
2023-05-04T06:17:01.044Z,13.20
2023-05-04T06:20:04.091Z,13.32
2023-05-04T06:23:07.390Z,13.54
2023-05-04T06:26:10.045Z,13.69
2023-05-04T06:29:14.000Z,13.84
2023-05-04T06:32:16.775Z,13.98
2023-05-04T06:35:20.000Z,14.10
2023-05-04T06:38:22.852Z,14.21
2023-05-04T06:41:25.595Z,14.27
2023-05-04T06:44:30.055Z,14.36
2023-05-04T06:47:32.666Z,14.53
2023-05-04T06:50:36.288Z,14.56
2023-05-04T06:53:39.124Z,14.74
2023-05-04T06:56:42.182Z,14.88
2023-05-04T06:59:46.229Z,15.01
2023-05-04T07:02:48.855Z,15.09
2023-05-04T07:05:51.657Z,15.31
2023-05-04T07:08:54.269Z,15.50
2023-05-04T07:11:56.886Z,15.69
2023-05-04T07:15:00.755Z,15.78
2023-05-04T07:18:03.759Z,15.92
2023-05-04T07:21:22.534Z,16.13
2023-05-04T07:24:30.523Z,16.09
2023-05-04T07:27:34.956Z,16.44
2023-05-04T07:30:38.997Z,16.62
2023-05-04T07:33:41.808Z,16.86
2023-05-04T07:36:44.580Z,16.98
2023-05-04T07:39:47.640Z,17.18
2023-05-04T07:42:50.289Z,17.44
2023-05-04T07:45:55.016Z,17.61
2023-05-04T07:48:57.745Z,17.77
2023-05-04T07:52:00.657Z,17.97
2023-05-04T07:55:03.799Z,18.20
2023-05-04T07:58:06.702Z,18.30
2023-05-04T08:01:10.913Z,18.51
2023-05-04T08:04:13.521Z,18.58
2023-05-04T08:07:17.113Z,18.69
2023-05-04T08:10:19.825Z,18.93
2023-05-04T08:13:22.418Z,19.09
2023-05-04T08:16:26.642Z,18.96
2023-05-04T08:19:29.386Z,19.20
2023-05-04T08:22:32.543Z,19.44
2023-05-04T08:25:35.181Z,19.51
2023-05-04T08:28:40.293Z,19.58
2023-05-04T08:31:44.459Z,19.66
2023-05-04T08:34:47.064Z,19.49
2023-05-04T08:37:49.680Z,19.68
2023-05-04T08:40:52.362Z,19.96
2023-05-04T08:43:55.386Z,20.03
2023-05-04T08:46:59.752Z,20.25
2023-05-04T08:50:02.607Z,20.41
2023-05-04T08:53:07.279Z,20.37
2023-05-04T08:56:13.822Z,20.58
2023-05-04T08:59:20.667Z,20.28
2023-05-04T09:02:25.930Z,20.51
2023-05-04T09:05:29.384Z,20.74
2023-05-04T09:08:32.165Z,20.67
2023-05-04T09:11:35.054Z,20.45
2023-05-04T09:14:39.396Z,20.61
2023-05-04T09:17:57.004Z,20.90
2023-05-04T09:21:00.616Z,21.08
2023-05-04T09:24:03.323Z,21.00
2023-05-04T09:27:12.613Z,21.19
2023-05-04T09:30:15.300Z,21.45
2023-05-04T09:33:27.283Z,21.24
2023-05-04T09:36:30.193Z,21.46
2023-05-04T09:39:32.869Z,21.50
2023-05-04T09:42:36.156Z,21.84
2023-05-04T09:45:42.017Z,22.05
2023-05-04T09:48:53.823Z,21.91
2023-05-04T09:51:57.244Z,22.13
2023-05-04T09:55:00.462Z,22.16
2023-05-04T09:58:03.038Z,22.13
2023-05-04T10:01:06.898Z,22.26
2023-05-04T10:04:11.706Z,22.53
2023-05-04T10:07:14.312Z,22.24
2023-05-04T10:10:17.118Z,22.75
2023-05-04T10:13:19.637Z,23.01
2023-05-04T10:16:30.837Z,22.96
2023-05-04T10:19:50.918Z,23.20
2023-05-04T10:23:05.170Z,23.19
2023-05-04T10:26:24.261Z,23.24
2023-05-04T10:29:29.382Z,23.34
2023-05-04T10:32:38.565Z,23.73
2023-05-04T10:35:52.846Z,24.01
2023-05-04T10:38:55.408Z,24.06
2023-05-04T10:42:02.225Z,24.28
2023-05-04T10:45:05.875Z,24.33
2023-05-04T10:48:09.391Z,24.58
2023-05-04T10:51:20.588Z,24.81
2023-05-04T10:54:23.373Z,24.91
2023-05-04T10:57:28.342Z,24.86
2023-05-04T11:00:37.674Z,25.02
2023-05-04T11:03:40.768Z,24.73
2023-05-04T11:06:45.483Z,24.69
2023-05-04T11:09:48.254Z,23.96
2023-05-04T11:12:51.001Z,24.66
2023-05-04T11:15:53.893Z,24.70
2023-05-04T11:19:08.455Z,24.57
2023-05-04T11:22:13.765Z,24.56
2023-05-04T11:25:16.998Z,24.65
2023-05-04T11:28:19.543Z,24.80
2023-05-04T11:31:22.463Z,24.97
2023-05-04T11:34:25.135Z,25.55
2023-05-04T11:37:30.651Z,25.77
2023-05-04T11:40:33.901Z,25.96
2023-05-04T11:43:37.726Z,25.25
2023-05-04T11:46:40.825Z,25.58
2023-05-04T11:49:43.873Z,25.79
2023-05-04T11:52:47.917Z,26.30
2023-05-04T11:55:52.354Z,26.30
2023-05-04T11:58:55.360Z,25.85
2023-05-04T12:01:57.983Z,26.29
2023-05-04T12:05:00.817Z,26.46
2023-05-04T12:08:07.123Z,26.08
2023-05-04T12:11:13.864Z,26.29
2023-05-04T12:14:17.074Z,26.25
2023-05-04T12:17:20.354Z,26.52
2023-05-04T12:20:28.099Z,26.64
2023-05-04T12:23:33.058Z,26.90
2023-05-04T12:26:35.753Z,26.68
2023-05-04T12:29:38.297Z,26.23
2023-05-04T12:32:41.300Z,27.12
2023-05-04T12:35:44.150Z,27.37
2023-05-04T12:38:47.894Z,28.19
2023-05-04T12:41:50.478Z,27.94
2023-05-04T12:44:53.718Z,28.78
2023-05-04T12:47:56.312Z,30.08
2023-05-04T12:50:59.832Z,35.89
2023-05-04T12:54:03.807Z,38.59
2023-05-04T12:57:06.328Z,41.20
2023-05-04T13:00:11.386Z,42.16
2023-05-04T13:03:14.606Z,44.39
2023-05-04T13:06:17.262Z,44.18
2023-05-04T13:09:21.370Z,43.31
2023-05-04T13:12:24.043Z,44.06
2023-05-04T13:15:27.905Z,42.88
2023-05-04T13:18:30.440Z,44.58
2023-05-04T13:21:33.020Z,47.90
2023-05-04T13:24:36.886Z,47.53
2023-05-04T13:27:39.401Z,48.57
2023-05-04T13:30:42.483Z,47.32
2023-05-04T13:33:45.362Z,47.18
2023-05-04T13:36:47.973Z,46.58
2023-05-04T13:39:51.919Z,45.80
2023-05-04T13:42:54.409Z,43.03
2023-05-04T13:45:58.379Z,46.52
2023-05-04T13:49:00.908Z,49.51
2023-05-04T13:52:03.713Z,50.14
2023-05-04T13:55:08.686Z,48.20
2023-05-04T13:58:11.663Z,45.84
2023-05-04T14:01:14.238Z,43.23
2023-05-04T14:04:16.751Z,46.07
2023-05-04T14:07:19.480Z,48.59
2023-05-04T14:10:23.569Z,47.17
2023-05-04T14:13:26.422Z,43.93
2023-05-04T14:16:29.126Z,42.87
2023-05-04T14:19:31.927Z,44.67
2023-05-04T14:22:37.271Z,45.76
2023-05-04T14:25:44.049Z,46.75
2023-05-04T14:28:46.672Z,48.57
2023-05-04T14:31:49.297Z,50.41
2023-05-04T14:34:51.842Z,49.67
2023-05-04T14:37:54.497Z,48.65
2023-05-04T14:40:59.483Z,48.94
2023-05-04T14:44:02.136Z,48.21
2023-05-04T14:47:06.864Z,50.93
2023-05-04T14:50:11.399Z,49.06
2023-05-04T14:53:14.263Z,48.67
2023-05-04T14:56:18.189Z,47.76
2023-05-04T14:59:20.784Z,44.52
2023-05-04T15:02:23.527Z,47.92
2023-05-04T15:05:26.097Z,49.46
2023-05-04T15:08:28.666Z,48.78
2023-05-04T15:11:32.694Z,48.04
2023-05-04T15:14:36.618Z,48.61
2023-05-04T15:17:39.315Z,49.04
2023-05-04T15:20:41.908Z,48.33
2023-05-04T15:23:44.468Z,44.57
2023-05-04T15:26:48.499Z,44.89
2023-05-04T15:29:50.994Z,44.89
2023-05-04T15:32:53.650Z,43.34
2023-05-04T15:35:56.205Z,41.75
2023-05-04T15:38:58.736Z,42.26
2023-05-04T15:42:03.469Z,42.42
2023-05-04T15:45:08.600Z,41.36
2023-05-04T15:48:12.029Z,40.59
2023-05-04T15:51:14.792Z,41.21
2023-05-04T15:54:17.380Z,41.35
2023-05-04T15:57:21.621Z,40.61
2023-05-04T16:00:24.568Z,40.31
2023-05-04T16:03:27.141Z,42.24
2023-05-04T16:06:29.775Z,43.64
2023-05-04T16:09:32.515Z,44.24
2023-05-04T16:12:36.949Z,42.84
2023-05-04T16:15:39.567Z,44.29
2023-05-04T16:18:42.099Z,43.94
2023-05-04T16:21:44.587Z,44.51
2023-05-04T16:24:47.108Z,42.80
2023-05-04T16:27:52.152Z,40.97
2023-05-04T16:30:54.864Z,41.05
2023-05-04T16:33:57.841Z,41.49
2023-05-04T16:37:01.870Z,39.73
2023-05-04T16:40:15.096Z,38.98
2023-05-04T16:43:19.016Z,38.35
2023-05-04T16:46:21.647Z,36.56
2023-05-04T16:49:24.273Z,35.81
2023-05-04T16:52:26.912Z,35.36
2023-05-04T16:55:29.989Z,34.87
2023-05-04T16:58:33.909Z,32.43
2023-05-04T17:01:36.569Z,31.44
2023-05-04T17:04:39.399Z,31.41
2023-05-04T17:07:43.317Z,30.51
2023-05-04T17:10:46.016Z,30.18
2023-05-04T17:13:49.769Z,29.72
2023-05-04T17:16:52.590Z,29.47
2023-05-04T17:19:55.288Z,28.90
2023-05-04T17:22:58.813Z,28.14
2023-05-04T17:26:01.921Z,27.48
2023-05-04T17:29:08.514Z,26.88
2023-05-04T17:32:11.178Z,26.82
2023-05-04T17:35:24.454Z,26.43
2023-05-04T17:38:28.132Z,26.09
2023-05-04T17:41:31.164Z,26.00
2023-05-04T17:44:35.202Z,25.80
2023-05-04T17:47:37.776Z,25.72
2023-05-04T17:50:41.713Z,25.41
2023-05-04T17:53:44.417Z,25.20
2023-05-04T17:56:47.093Z,25.05
2023-05-04T17:59:51.152Z,24.90
2023-05-04T18:02:53.707Z,24.60
2023-05-04T18:05:56.666Z,24.28
2023-05-04T18:08:59.227Z,24.10
2023-05-04T18:12:03.212Z,23.93
2023-05-04T18:15:09.075Z,23.77
2023-05-04T18:18:11.786Z,23.52
2023-05-04T18:21:14.548Z,23.25
2023-05-04T18:24:17.550Z,22.99
2023-05-04T18:27:20.186Z,22.70
2023-05-04T18:30:24.347Z,22.48
2023-05-04T18:33:27.065Z,22.19
2023-05-04T18:36:30.057Z,21.93
2023-05-04T18:39:32.777Z,21.69
2023-05-04T18:42:35.415Z,21.53
2023-05-04T18:45:39.448Z,21.37
2023-05-04T18:48:42.505Z,21.21
2023-05-04T18:51:45.167Z,21.11
2023-05-04T18:54:47.931Z,21.04
2023-05-04T18:57:51.555Z,20.86
2023-05-04T19:00:55.524Z,20.79
2023-05-04T19:03:58.124Z,20.65
2023-05-04T19:07:01.711Z,20.58
2023-05-04T19:10:05.867Z,20.42
2023-05-04T19:16:27.189Z,20.18
2023-05-04T19:19:30.258Z,20.32
2023-05-04T19:22:33.017Z,20.39
2023-05-04T19:25:35.698Z,20.44
2023-05-04T19:28:39.889Z,20.35
2023-05-04T19:31:44.145Z,20.36
2023-05-04T19:34:46.706Z,20.34
2023-05-04T19:37:50.406Z,20.32
2023-05-04T19:40:53.038Z,20.25
2023-05-04T19:43:55.601Z,20.09
2023-05-04T19:46:59.821Z,20.15
2023-05-04T19:50:02.969Z,20.03
2023-05-04T19:53:06.088Z,19.98
2023-05-04T19:56:09.072Z,19.96
2023-05-04T19:59:11.634Z,19.81
2023-05-04T20:02:15.996Z,19.85
2023-05-04T20:05:18.846Z,19.78
2023-05-04T20:08:21.653Z,19.68
2023-05-04T20:11:24.400Z,19.65
2023-05-04T20:14:27.123Z,19.52
2023-05-04T20:17:31.455Z,19.40
2023-05-04T20:20:34.243Z,19.35
2023-05-04T20:23:37.308Z,19.36
2023-05-04T20:26:40.020Z,19.32
2023-05-04T20:29:42.570Z,19.23
2023-05-04T20:32:46.817Z,19.09
2023-05-04T20:35:49.380Z,19.07
2023-05-04T20:38:52.046Z,19.08
2023-05-04T20:41:55.032Z,19.01
2023-05-04T20:44:58.082Z,19.00
2023-05-04T20:48:03.889Z,18.87
2023-05-04T20:54:15.683Z,18.90
2023-05-04T20:57:18.420Z,18.74
2023-05-04T21:00:21.273Z,18.81
2023-05-04T21:03:25.431Z,18.71
2023-05-04T21:06:28.090Z,18.54
2023-05-04T21:09:30.735Z,18.40
2023-05-04T21:12:33.269Z,18.28
2023-05-04T21:15:36.543Z,18.31
2023-05-04T21:18:40.414Z,18.36
2023-05-04T21:21:42.947Z,18.34
2023-05-04T21:24:47.030Z,18.30
2023-05-04T21:27:49.716Z,18.15
2023-05-04T21:30:52.408Z,18.04
2023-05-04T21:33:56.270Z,18.03
2023-05-04T21:36:58.839Z,18.01
2023-05-04T21:40:01.873Z,18.01
2023-05-04T21:43:04.569Z,17.94
2023-05-04T21:46:07.891Z,18.01
2023-05-04T21:49:11.809Z,17.97
2023-05-04T21:52:14.236Z,17.78
2023-05-04T21:55:18.113Z,17.62
2023-05-04T21:58:21.465Z,17.44
2023-05-04T22:01:24.132Z,17.29
2023-05-04T22:04:28.216Z,17.21
2023-05-04T22:07:30.803Z,17.25
2023-05-04T22:10:33.321Z,17.06
2023-05-04T22:13:36.093Z,16.92
2023-05-04T22:16:39.003Z,16.82
2023-05-04T22:19:42.845Z,16.71
2023-05-04T22:22:45.723Z,16.62
2023-05-04T22:25:48.293Z,16.48
2023-05-04T22:28:51.021Z,16.45
2023-05-04T22:31:53.804Z,16.34
2023-05-04T22:34:57.943Z,16.21
2023-05-04T22:38:00.576Z,16.02
2023-05-04T22:41:03.304Z,16.00
2023-05-04T22:44:05.908Z,16.02
2023-05-04T22:47:08.514Z,16.04
2023-05-04T22:50:12.415Z,16.15
2023-05-04T22:53:15.587Z,16.18
2023-05-04T22:56:18.237Z,16.17
2023-05-04T22:59:20.837Z,16.13
2023-05-04T23:02:23.560Z,16.05
2023-05-04T23:05:27.850Z,15.99
2023-05-04T23:08:30.426Z,15.96
2023-05-04T23:11:33.374Z,16.08
2023-05-04T23:14:36.091Z,16.16
2023-05-04T23:17:38.822Z,16.26
2023-05-04T23:20:42.794Z,16.42
2023-05-04T23:23:45.322Z,16.48
2023-05-04T23:26:48.035Z,16.46
2023-05-04T23:29:50.752Z,16.57
2023-05-04T23:32:53.521Z,16.53
2023-05-04T23:35:57.452Z,16.55
2023-05-04T23:39:00.340Z,16.54
2023-05-04T23:42:03.124Z,16.57
2023-05-04T23:45:07.513Z,16.66
2023-05-04T23:48:10.669Z,16.66
2023-05-04T23:51:14.508Z,16.61
2023-05-04T23:54:17.404Z,16.59
2023-05-04T23:57:20.219Z,16.55
